Nearby METAR Reports

 

KORH - Worcester, Massachusetts, USA
Distance from station: NW 4mi, 7km
Updated: Tue, 24-Apr-2018 3:54am EDT
Clear
Clear
 Wind from WSW
Wind: WSW 13 mph , 20 km/h
Temperature: 43°F , 6°C
Wind Chill: 36°F , 2°C
Dew Point: 27°F , -3°C
Humidity: 53%
Barometer: 30.37 inHg , 1028.4 hPa
Clouds: Clear
Visibility: 10 miles , 16 km
2018/04/24 07:54 KORH 240754Z AUTO 25011KT 10SM CLR 06/M03 A3037 RMK AO2 SLP289 T00561033
KBOS - Boston, Massachusetts, USA
Distance from station: ENE 42mi, 68km
Updated: Tue, 24-Apr-2018 3:54am EDT
Clear
Clear
 Wind from SW
Wind: SW 7 mph , 11 km/h
Temperature: 43°F , 6°C
Wind Chill: 39°F , 4°C
Dew Point: 30°F , -1°C
Humidity: 61%
Barometer: 30.41 inHg , 1029.8 hPa
Clouds: Clear
Visibility: 10 miles , 16 km
2018/04/24 07:54 KBOS 240754Z 23006KT 10SM CLR 06/M01 A3041 RMK AO2 SLP296 T00611011
 
KCQX - Chatham, Massachusetts, USA
Distance from station: SE 102mi, 164km
Updated: Tue, 24-Apr-2018 3:52am EDT
Clear
Clear
 Wind from WSW
Wind: WSW 3 mph , 6 km/h
Temperature: 43°F , 6°C
Dew Point: 37°F , 3°C
Humidity: 81%
Barometer: 30.45 inHg , 1031.2 hPa
Clouds: Clear
Visibility: 10 miles , 16 km
2018/04/24 07:52 KCQX 240752Z AUTO 24003KT 10SM CLR 06/03 A3045 RMK AO2 SLP311 T00560033
KMVY - Marthas Vineyard, Massachusetts, USA
Distance from station: SE 84mi, 135km
Updated: Tue, 24-Apr-2018 4:19am EDT
Mist, Few clouds
Mist, Few clouds
 Wind from calm
Wind: Calm
Temperature: 25°F , -4°C
Dew Point: 25°F , -4°C
Humidity: 100%
Barometer: 30.43 inHg , 1030.5 hPa
Summary: Mist
Clouds: Few Clouds
Visibility: 3 miles , 5 km
Cloud details: Few Clouds 200 ft
2018/04/24 08:19 KMVY 240819Z AUTO 00000KT 3SM R24/2800VP6000FT BR FEW002 M04/M04 A3043 RMK AO2 T10391044
 
KPVC - Provincetown, Massachusetts, USA
Distance from station: NNW 85mi, 136km
Updated: Tue, 24-Apr-2018 3:56am EDT
Clear
Clear
 Wind from SSW
Wind: SSW 9 mph , 15 km/h
Temperature: 43°F , 6°C
Wind Chill: 38°F , 3°C
Dew Point: 36°F , 2°C
Humidity: 76%
Barometer: 30.43 inHg , 1030.5 hPa
Clouds: Clear
Visibility: 10 miles , 16 km
2018/04/24 07:56 KPVC 240756Z AUTO 20008KT 10SM CLR 06/02 A3043 RMK AO2 SLP305 T00560022
KAQW - Savoy, Massachusetts, USA
Distance from station: NNW 66mi, 106km
Updated: Tue, 24-Apr-2018 3:52am EDT
Clear
Clear
 Wind from ESE
Wind: ESE 12 mph , 19 km/h
Temperature: 41°F , 5°C
Wind Chill: 34°F , 1°C
Dew Point: 25°F , -4°C
Humidity: 53%
Barometer: 30.37 inHg , 1028.4 hPa
Clouds: Clear
Visibility: 10 miles , 16 km
2018/04/24 07:52 KAQW 240752Z AUTO 11010KT 10SM CLR 05/M04 A3037 RMK AO2 SLP286 T00501044
 
KIZG - Fryeburg, Maine, USA
Distance from station: NNE 133mi, 214km
Updated: Tue, 24-Apr-2018 3:54am EDT
Clear
Clear
 Wind from calm
Wind: Calm
Temperature: 30°F , -1°C
Dew Point: 27°F , -3°C
Humidity: 86%
Barometer: 30.34 inHg , 1027.4 hPa
Clouds: Clear
Visibility: 10 miles , 16 km
2018/04/24 07:54 KIZG 240754Z AUTO 00000KT 10SM CLR M01/M03 A3034 RMK AO2 SLP277 T10061028
KMWN - Mt Washington, New Hampshire, USA
Distance from station: NNE 146mi, 234km
Updated: Tue, 24-Apr-2018 3:57am EDT
Partly cloudy
Partly cloudy
 Wind from W
Wind: W 47 mph , 76 km/h, Gust: 48 mph , 78 km/h
Temperature: 30°F , -1°C
Wind Chill: 12°F , -11°C
Dew Point: 18°F , -8°C
Humidity: 59%
Clouds: Partly cloudy
Visibility: 110 miles , 176 km
Cloud details: Partly cloudy 16000 ft
Partly cloudy 18000 ft
2018/04/24 07:57 KMWN 240757Z 28041G42KT 110SM SCT160 SCT180 M01/M08 RMK
 
KBML - Berlin, New Hampshire, USA
Distance from station: NNE 160mi, 257km
Updated: Tue, 24-Apr-2018 3:52am EDT
Clear
Clear
 Wind from calm
Wind: Calm
Temperature: 25°F , -4°C
Dew Point: 21°F , -6°C
Humidity: 86%
Barometer: 30.32 inHg , 1026.8 hPa
Clouds: Clear
Visibility: 10 miles , 16 km
2018/04/24 07:52 KBML 240752Z AUTO 00000KT 10SM CLR M04/M06 A3032 RMK AO2 SLP277 I1000 T10391056